createdAt,value
2022-09-20T00:02:50.881Z,13.19
2022-09-20T00:08:17.627Z,13.21
2022-09-20T00:13:42.559Z,13.14
2022-09-20T00:19:07.061Z,13.21
2022-09-20T00:24:35.563Z,13.21
2022-09-20T00:29:59.378Z,13.04
2022-09-20T00:35:24.393Z,12.94
2022-09-20T00:40:49.576Z,12.92
2022-09-20T00:46:23.427Z,12.86
2022-09-20T00:51:55.702Z,12.70
2022-09-20T00:57:21.037Z,12.65
2022-09-20T01:02:49.401Z,12.65
2022-09-20T01:08:15.105Z,12.76
2022-09-20T01:13:40.604Z,12.92
2022-09-20T01:19:17.606Z,13.06
2022-09-20T01:24:49.489Z,13.16
2022-09-20T01:30:20.157Z,13.19
2022-09-20T01:35:48.750Z,13.09
2022-09-20T01:41:21.995Z,13.07
2022-09-20T01:46:54.084Z,12.97
2022-09-20T01:52:56.988Z,12.96
2022-09-20T01:59:07.160Z,12.73
2022-09-20T02:05:05.843Z,12.67
2022-09-20T02:10:51.036Z,12.73
2022-09-20T02:16:40.886Z,12.91
2022-09-20T02:22:18.419Z,13.09
2022-09-20T02:27:58.069Z,13.13
2022-09-20T02:33:45.406Z,13.15
2022-09-20T02:39:17.715Z,13.26
2022-09-20T02:44:50.669Z,13.04
2022-09-20T02:50:26.167Z,13.00
2022-09-20T02:56:04.210Z,12.93
2022-09-20T03:01:44.332Z,12.85
2022-09-20T03:07:20.022Z,12.97
2022-09-20T03:12:58.513Z,13.00
2022-09-20T03:18:35.514Z,12.89
2022-09-20T03:24:11.265Z,12.93
2022-09-20T03:29:50.149Z,12.99
2022-09-20T03:35:28.594Z,12.93
2022-09-20T03:41:11.073Z,13.02
2022-09-20T03:46:45.560Z,13.06
2022-09-20T03:52:26.902Z,12.97
2022-09-20T03:58:14.843Z,12.92
2022-09-20T04:03:50.446Z,13.07
2022-09-20T04:09:45.016Z,13.16
2022-09-20T04:15:23.594Z,13.35
2022-09-20T04:20:52.163Z,13.53
2022-09-20T04:26:23.576Z,13.39
2022-09-20T04:31:54.598Z,13.25
2022-09-20T04:37:27.769Z,13.17
2022-09-20T04:43:33.466Z,13.09
2022-09-20T04:49:23.173Z,12.98
2022-09-20T04:55:31.251Z,12.24
2022-09-20T05:01:24.671Z,11.91
2022-09-20T05:07:17.046Z,11.75
2022-09-20T05:13:05.461Z,11.63
2022-09-20T05:19:10.301Z,11.68
2022-09-20T05:25:03.110Z,11.82
2022-09-20T05:30:38.068Z,12.01
2022-09-20T05:36:10.665Z,12.20
2022-09-20T05:41:44.152Z,12.46
2022-09-20T05:47:19.365Z,12.67
2022-09-20T05:52:53.814Z,12.50
2022-09-20T05:58:33.317Z,12.13
2022-09-20T06:04:10.450Z,12.11
2022-09-20T06:10:01.605Z,12.28
2022-09-20T06:15:35.348Z,12.27
2022-09-20T06:21:14.654Z,12.03
2022-09-20T06:26:44.708Z,12.10
2022-09-20T06:32:09.623Z,12.57
2022-09-20T06:38:03.262Z,13.03
2022-09-20T06:43:31.620Z,13.14
2022-09-20T06:48:59.225Z,13.14
2022-09-20T06:54:27.154Z,13.25
2022-09-20T06:59:51.741Z,13.11
2022-09-20T07:05:18.053Z,12.98
2022-09-20T07:10:45.229Z,13.01
2022-09-20T07:16:12.850Z,13.95
2022-09-20T07:21:37.493Z,15.18
2022-09-20T07:27:06.780Z,15.73
2022-09-20T07:32:31.054Z,17.13
2022-09-20T07:37:58.327Z,18.90
2022-09-20T07:43:23.944Z,19.33
2022-09-20T07:48:47.640Z,19.29
2022-09-20T07:54:12.144Z,19.03
2022-09-20T07:59:37.650Z,18.47
2022-09-20T08:05:01.716Z,18.59
2022-09-20T08:10:26.831Z,18.10
2022-09-20T08:15:52.283Z,18.83
2022-09-20T08:21:19.019Z,19.63
2022-09-20T08:26:43.770Z,20.11
2022-09-20T08:32:09.293Z,20.35
2022-09-20T08:37:33.796Z,20.62
2022-09-20T08:42:58.632Z,20.23
2022-09-20T08:48:28.685Z,19.48
2022-09-20T08:53:57.026Z,19.76
2022-09-20T08:59:26.030Z,19.99
2022-09-20T09:04:53.852Z,19.69
2022-09-20T09:10:18.190Z,19.89
2022-09-20T09:15:46.520Z,20.41
2022-09-20T09:21:20.490Z,21.09
2022-09-20T09:26:44.874Z,21.87
2022-09-20T09:32:24.609Z,21.89
2022-09-20T09:37:57.619Z,21.30
2022-09-20T09:43:27.047Z,21.18
2022-09-20T09:49:10.513Z,19.90
2022-09-20T09:54:40.264Z,19.95
2022-09-20T10:00:19.610Z,18.50
2022-09-20T10:05:56.835Z,18.48
2022-09-20T10:11:32.044Z,19.08
2022-09-20T10:17:13.508Z,18.48
2022-09-20T10:23:00.326Z,18.52
2022-09-20T10:28:50.792Z,18.58
2022-09-20T10:34:39.582Z,18.86
2022-09-20T10:40:18.906Z,19.16
2022-09-20T10:46:14.374Z,19.20
2022-09-20T10:51:47.917Z,19.10
2022-09-20T10:57:41.193Z,19.01
2022-09-20T11:03:22.265Z,18.87
2022-09-20T11:08:50.943Z,18.79
2022-09-20T11:14:19.573Z,18.71
2022-09-20T11:19:53.270Z,18.49
2022-09-20T11:25:22.342Z,18.32
2022-09-20T11:30:56.838Z,17.39
2022-09-20T11:36:29.509Z,17.32
2022-09-20T11:41:56.960Z,17.13
2022-09-20T11:47:49.800Z,17.63
2022-09-20T11:53:21.737Z,18.29
2022-09-20T11:58:49.064Z,18.66
2022-09-20T12:04:38.599Z,18.97
2022-09-20T12:10:09.478Z,19.24
2022-09-20T12:15:39.124Z,19.72
2022-09-20T12:21:15.951Z,19.92
2022-09-20T12:26:49.375Z,20.13
2022-09-20T12:32:41.020Z,20.26
2022-09-20T12:38:18.432Z,20.36
2022-09-20T12:43:57.700Z,20.54
2022-09-20T12:50:07.800Z,21.01
2022-09-20T12:55:43.839Z,21.59
2022-09-20T13:01:40.493Z,21.45
2022-09-20T13:07:44.171Z,21.13
2022-09-20T13:13:31.508Z,20.52
2022-09-20T13:19:05.303Z,20.18
2022-09-20T13:24:33.716Z,19.83
2022-09-20T13:30:11.123Z,19.62
2022-09-20T13:35:36.415Z,19.49
2022-09-20T13:41:06.361Z,19.17
2022-09-20T13:46:33.272Z,19.13
2022-09-20T13:51:58.576Z,18.90
2022-09-20T13:57:27.220Z,18.71
2022-09-20T14:02:54.690Z,18.31
2022-09-20T14:08:25.760Z,18.27
2022-09-20T14:13:54.191Z,18.28
2022-09-20T14:19:24.592Z,18.32
2022-09-20T14:25:02.692Z,18.20
2022-09-20T14:30:31.063Z,18.17
2022-09-20T14:35:55.545Z,18.20
2022-09-20T14:41:34.038Z,18.17
2022-09-20T14:46:59.246Z,18.07
2022-09-20T14:52:36.634Z,18.02
2022-09-20T14:58:08.480Z,17.83
2022-09-20T15:03:34.682Z,17.74
2022-09-20T15:09:01.108Z,17.71
2022-09-20T15:14:27.306Z,17.70
2022-09-20T15:19:53.862Z,17.69
2022-09-20T15:25:20.881Z,17.65
2022-09-20T15:30:46.949Z,17.61
2022-09-20T15:36:11.875Z,17.56
2022-09-20T15:41:37.127Z,17.49
2022-09-20T15:47:04.552Z,17.42
2022-09-20T15:52:34.594Z,17.37
2022-09-20T15:57:58.924Z,17.26
2022-09-20T16:03:31.132Z,17.16
2022-09-20T16:08:56.547Z,17.08
2022-09-20T16:14:20.720Z,17.02
2022-09-20T16:19:48.700Z,16.97
2022-09-20T16:25:13.419Z,16.87
2022-09-20T16:30:37.425Z,16.82
2022-09-20T16:36:03.511Z,16.76
2022-09-20T16:41:29.113Z,16.57
2022-09-20T16:46:53.331Z,16.49
2022-09-20T16:52:18.824Z,16.30
2022-09-20T16:57:43.736Z,15.91
2022-09-20T17:03:08.291Z,15.65
2022-09-20T17:08:38.832Z,15.68
2022-09-20T17:14:03.080Z,15.73
2022-09-20T17:19:28.877Z,15.79
2022-09-20T17:24:54.854Z,15.85
2022-09-20T17:30:19.655Z,15.71
2022-09-20T17:35:52.466Z,15.30
2022-09-20T17:41:20.776Z,15.19
2022-09-20T17:46:48.000Z,15.12
2022-09-20T17:52:12.992Z,14.99
2022-09-20T17:57:39.092Z,14.82
2022-09-20T18:03:05.104Z,14.93
2022-09-20T18:08:29.138Z,14.97
2022-09-20T18:13:55.544Z,14.95
2022-09-20T18:19:21.484Z,14.98
2022-09-20T18:24:46.296Z,15.04
2022-09-20T18:30:13.841Z,15.05
2022-09-20T18:35:42.791Z,15.07
2022-09-20T18:41:09.043Z,15.06
2022-09-20T18:46:37.946Z,14.97
2022-09-20T18:52:02.800Z,14.84
2022-09-20T18:57:27.777Z,14.48
2022-09-20T19:03:08.102Z,14.40
2022-09-20T19:08:39.492Z,14.45
2022-09-20T19:14:13.404Z,14.46
2022-09-20T19:19:48.217Z,14.41
2022-09-20T19:25:23.932Z,14.27
2022-09-20T19:30:49.049Z,14.05
2022-09-20T19:36:16.708Z,13.98
2022-09-20T19:41:51.039Z,14.02
2022-09-20T19:47:26.214Z,14.10
2022-09-20T19:52:52.207Z,14.13
2022-09-20T19:58:17.271Z,14.10
2022-09-20T20:03:47.607Z,13.94
2022-09-20T20:09:24.932Z,13.89
2022-09-20T20:14:58.353Z,13.70
2022-09-20T20:20:30.247Z,13.75
2022-09-20T20:26:03.374Z,13.67
2022-09-20T20:31:29.531Z,13.44
2022-09-20T20:37:01.003Z,13.46
2022-09-20T20:42:27.333Z,13.57
2022-09-20T20:47:57.333Z,13.74
2022-09-20T20:53:23.449Z,13.73
2022-09-20T20:58:50.026Z,13.56
2022-09-20T21:04:16.928Z,13.38
2022-09-20T21:09:41.802Z,13.30
2022-09-20T21:15:09.129Z,12.97
2022-09-20T21:20:39.378Z,13.01
2022-09-20T21:26:08.500Z,13.01
2022-09-20T21:31:36.361Z,12.90
2022-09-20T21:37:01.192Z,12.68
2022-09-20T21:42:27.284Z,12.82
2022-09-20T21:47:54.449Z,12.70
2022-09-20T21:53:20.619Z,12.68
2022-09-20T21:58:45.983Z,12.77
2022-09-20T22:04:13.201Z,12.69
2022-09-20T22:09:40.132Z,12.68
2022-09-20T22:15:06.128Z,12.39
2022-09-20T22:20:32.364Z,12.00
2022-09-20T22:26:00.666Z,11.80
2022-09-20T22:31:27.272Z,11.79
2022-09-20T22:36:53.934Z,11.94
2022-09-20T22:42:19.089Z,12.02
2022-09-20T22:47:44.939Z,11.82
2022-09-20T22:53:10.947Z,11.64
2022-09-20T22:58:37.943Z,11.47
2022-09-20T23:04:07.776Z,11.38
2022-09-20T23:09:35.447Z,11.22
2022-09-20T23:15:00.151Z,11.14
2022-09-20T23:20:24.974Z,10.99
2022-09-20T23:25:51.363Z,10.90
2022-09-20T23:31:17.578Z,10.72
2022-09-20T23:36:42.522Z,10.74
2022-09-20T23:42:08.814Z,10.60
2022-09-20T23:47:33.485Z,10.51
2022-09-20T23:52:58.056Z,10.44
2022-09-20T23:58:25.087Z,10.29
